ETSH 192320Z 27006KT 9999 SCT130 BKN220 19/14 Q1018 BLU+ ETSH 192220Z 27007KT 9999 BKN120 BKN180 20/14 Q1018 BLU ETSH 192200Z 26015KT 9999 VCSH BKN100 BKN170 21/14 Q1018 BLU FCST CNL ETSH 192120Z 23004KT 9999 BKN110 BKN170 21/11 Q1017 BLU BLU+ TEMPO BLU ETSH 192020Z 26008G18KT 9999 SCT140 BKN200 22/10 Q1018 BLU+BLU+ ETSH 191920Z 13002KT 9999 SCT140 BKN230 BKN280 21/08 Q1017 BLU+BLU+ ETSH 191820Z 15004KT 9999 FEW140 SCT240 BKN320 24/08 Q1017 BLU+BLU+ ETSH 191720Z 17004KT 9999 FEW150 SCT240 BKN350 26/06 Q1017 BLU+BLU+ ETSH 191620Z 19005KT 9999 BKN240 27/05 Q1017 BLU+BLU+ ETSH 191520Z 18009KT 9999 BKN250 28/04 Q1018 BLU+BLU+ ETSH 191420Z 17009KT 9999 BKN250 28/03 Q1018 BLU+BLU+ ETSH 191320Z 16010KT 9999 BKN250 28/08 Q1019 BLU+BLU+ ETSH 191220Z 14009KT 9999 BKN260 27/09 Q1020 BLU+BLU+ ETSH 191120Z 15006KT 9999 BKN260 26/09 Q1020 BLU+BLU+ ETSH 191020Z 17007KT 9999 BKN290 26/09 Q1021 BLU+BLU+ ETSH 190920Z 16009KT 9999 BKN300 24/09 Q1022 BLU+BLU+ ETSH 190820Z 18007KT 9999 BKN280 24/09 Q1022 BLU+BLU+ ETSH 190720Z 17008KT 9999 BKN240 21/09 Q1022 BLU+BLU+ ETSH 190620Z 17007KT 9999 BKN290 18/09 Q1023 BLU+BLU+ ETSH 190520Z 16006KT 9999 BKN320 15/09 Q1023 BLU+BLU+ ETSH 190420Z 15004KT 9999 SCT300 13/07 Q1022 BLU+BLU+ ETSH 190320Z 13003KT 9999 SCT300 12/07 Q1022 BLU+BLU+ ETSH 190220Z 14004KT 9999 SCT280 13/08 Q1022 BLU+ ETSH 190120Z 15006KT 9999 SCT300 14/08 Q1022 BLU+ ETSH 190020Z 14005KT 9999 SCT300 14/09 Q1022 BLU+ ETSH 182320Z 14005KT 9999 SCT320 15/10 Q1023 BLU+ ETSH 182220Z 13006KT 9999 FEW300 16/10 Q1023 BLU+ ETSH 182200Z 12005KT 9999 FEW300 15/10 Q1023 BLU+FCST CNL ETSH 182120Z 13005KT 9999 FEW300 16/10 Q1023 BLU+BLU+ ETSH 182020Z 12004KT 9999 FEW300 16/11 Q1023 BLU+BLU+ ETSH 181920Z 11002KT 9999 FEW300 19/11 Q1023 BLU+BLU+ ETSH 181820Z 13005KT 9999 FEW300 22/10 Q1023 BLU+BLU+ ETSH 181720Z 15005KT 9999 SCT350 24/10 Q1023 BLU+BLU+ ETSH 181620Z 14008KT 9999 FEW070 BKN330 25/10 Q1023 BLU+BLU+ ETSH 181520Z 14008KT 9999 FEW070 BKN330 25/09 Q1023 BLU+BLU+ ETSH 181420Z 14006KT 9999 FEW070 BKN300 25/09 Q1023 BLU+BLU+ ETSH 181320Z 15009KT 9999 FEW060 BKN200 25/09 Q1024 BLU+BLU+ ETSH 181220Z 16009KT 9999 FEW060 SCT200 24/09 Q1024 BLU+BLU+

METAR Messwerte "HOLZDORF" ETSH

Zurück zur Übersicht

Ortsname
Ländercode / m ü. NN
Zeit Temperatur Taupunkt Rel.
Luftfeuchte
Luftdruck:
Altimeter
NN
Station
Wind in Beaufort
(Knoten)
Sichtweite
(Meter)
Wolken
(Meter über Grund)
Wettererscheinung
HOLZDORF
DE 79
Fr 20.05. 01:20191473 %1018
1018
1009
W 2 (6)>= 10000Stark bewölkt (6700)
Wolkig (4000)
 
HOLZDORF
DE 79
Fr 20.05. 00:20201468 %1018
1018
1009
W 3 (7)>= 10000Stark bewölkt (5500)
Stark bewölkt (3700)
 
HOLZDORF
DE 79
Fr 20.05. 00:00211464 %1018
1018
1009
W 4 (15)>= 10000Stark bewölkt (5200)
Stark bewölkt (3000)
 
HOLZDORF
DE 79
Do 19.05. 23:20211153 %1017
1017
1008
SW 2 (4)>= 10000Stark bewölkt (5200)
Stark bewölkt (3400)
 
HOLZDORF
DE 79
Do 19.05. 22:20221046 %1018
1018
1009
W 3 (8) - 5 (18)>= 10000Stark bewölkt (6100)
Wolkig (4300)
 
HOLZDORF
DE 79
Do 19.05. 21:2021843 %1017
1017
1008
SO 1 (2)>= 10000Stark bewölkt (8500)
Stark bewölkt (7000)
Wolkig (4300)
 
HOLZDORF
DE 79
Do 19.05. 20:2024836 %1017
1017
1008
SSO 2 (4)>= 10000Stark bewölkt (9800)
Wolkig (7300)
Leicht bewölkt (4300)
 
HOLZDORF
DE 79
Do 19.05. 19:2026628 %1017
1017
1008
S 2 (4)>= 10000Stark bewölkt (11000)
Wolkig (7300)
Leicht bewölkt (4600)
 
HOLZDORF
DE 79
Do 19.05. 18:2027524 %1017
1017
1008
S 2 (5)>= 10000Stark bewölkt (7300) 
HOLZDORF
DE 79
Do 19.05. 17:2028422 %1018
1018
1009
S 3 (9)>= 10000Stark bewölkt (7600) 
HOLZDORF
DE 79
Do 19.05. 16:2028320 %1018
1018
1009
S 3 (9)>= 10000Stark bewölkt (7600) 
HOLZDORF
DE 79
Do 19.05. 15:2028828 %1019
1019
1010
SSO 3 (10)>= 10000Stark bewölkt (7600) 
HOLZDORF
DE 79
Do 19.05. 14:2027932 %1020
1020
1010
SO 3 (9)>= 10000Stark bewölkt (7900) 
HOLZDORF
DE 79
Do 19.05. 13:2026934 %1020
1020
1010
SSO 2 (6)>= 10000Stark bewölkt (7900) 
HOLZDORF
DE 79
Do 19.05. 12:2026934 %1021
1021
1011
S 3 (7)>= 10000Stark bewölkt (8800) 
HOLZDORF
DE 79
Do 19.05. 11:2024938 %1022
1022
1012
SSO 3 (9)>= 10000Stark bewölkt (9100) 
HOLZDORF
DE 79
Do 19.05. 10:2024938 %1022
1022
1012
S 3 (7)>= 10000Stark bewölkt (8500) 
HOLZDORF
DE 79
Do 19.05. 09:2021946 %1022
1022
1012
S 3 (8)>= 10000Stark bewölkt (7300) 
HOLZDORF
DE 79
Do 19.05. 08:2018956 %1023
1023
1013
S 3 (7)>= 10000Stark bewölkt (8800) 
HOLZDORF
DE 79
Do 19.05. 07:2015967 %1023
1023
1013
SSO 2 (6)>= 10000Stark bewölkt (9800) 
HOLZDORF
DE 79
Do 19.05. 06:2013767 %1022
1022
1012
SSO 2 (4)>= 10000Wolkig (9100) 
HOLZDORF
DE 79
Do 19.05. 05:2012771 %1022
1022
1012
SO 2 (3)>= 10000Wolkig (9100) 
HOLZDORF
DE 79
Do 19.05. 04:2013872 %1022
1022
1012
SO 2 (4)>= 10000Wolkig (8500) 
HOLZDORF
DE 79
Do 19.05. 03:2014867 %1022
1022
1012
SSO 2 (6)>= 10000Wolkig (9100) 
HOLZDORF
DE 79
Do 19.05. 02:2014972 %1022
1022
1012
SO 2 (5)>= 10000Wolkig (9100) 
HOLZDORF
DE 79
Do 19.05. 01:20151072 %1023
1023
1013
SO 2 (5)>= 10000Wolkig (9800) 
HOLZDORF
DE 79
Do 19.05. 00:20161068 %1023
1023
1013
SO 2 (6)>= 10000Leicht bewölkt (9100) 
HOLZDORF
DE 79
Do 19.05. 00:00151072 %1023
1023
1013
OSO 2 (5)>= 10000Leicht bewölkt (9100) 
HOLZDORF
DE 79
Mi 18.05. 23:20161068 %1023
1023
1013
SO 2 (5)>= 10000Leicht bewölkt (9100) 
HOLZDORF
DE 79
Mi 18.05. 22:20161172 %1023
1023
1013
OSO 2 (4)>= 10000Leicht bewölkt (9100) 
HOLZDORF
DE 79
Mi 18.05. 21:20191160 %1023
1023
1013
OSO 1 (2)>= 10000Leicht bewölkt (9100) 
HOLZDORF
DE 79
Mi 18.05. 20:20221046 %1023
1023
1013
SO 2 (5)>= 10000Leicht bewölkt (9100) 
HOLZDORF
DE 79
Mi 18.05. 19:20241041 %1023
1023
1013
SSO 2 (5)>= 10000Wolkig (11000) 
HOLZDORF
DE 79
Mi 18.05. 18:20251039 %1023
1023
1013
SO 3 (8)>= 10000Stark bewölkt (10000)
Leicht bewölkt (2100)
 
HOLZDORF
DE 79
Mi 18.05. 17:2025936 %1023
1023
1013
SO 3 (8)>= 10000Stark bewölkt (10000)
Leicht bewölkt (2100)
 
HOLZDORF
DE 79
Mi 18.05. 16:2025936 %1023
1023
1013
SO 2 (6)>= 10000Stark bewölkt (9100)
Leicht bewölkt (2100)
 
HOLZDORF
DE 79
Mi 18.05. 15:2025936 %1024
1024
1014
SSO 3 (9)>= 10000Stark bewölkt (6100)
Leicht bewölkt (1800)
 
HOLZDORF
DE 79
Mi 18.05. 14:2024938 %1024
1024
1014
SSO 3 (9)>= 10000Wolkig (6100)
Leicht bewölkt (1800)
 

Altimeter: Einstellung am Altimeter (Höhenmesser), die Höhe 0 muss auf diesen Luftdruckwert zeigen, damit das Gerät die Stationshöhe richtig anzeigt.

NN: Luftdruck reduziert auf "Normal Null", auf Meereshöhe, dieser von der Temperatur abhängige Wert wird bisweilen unkorrekt einfach als "Luftdruck" bezeichnet. Eigentlich nur eine fiktive Größe, die es erlaubt, Stationen auf unterschiedlichen Höhen miteinander zu vergleichen.

Station: Realer Luftdruck an der Station.